createdAt,value
2022-08-31T00:01:29.546Z,101985.19
2022-08-31T00:06:35.037Z,101986.88
2022-08-31T00:11:38.789Z,101978.03
2022-08-31T00:16:46.338Z,101982.09
2022-08-31T00:21:50.279Z,101971.50
2022-08-31T00:26:54.150Z,101980.75
2022-08-31T00:31:59.298Z,101972.81
2022-08-31T00:37:04.383Z,101970.72
2022-08-31T00:42:09.853Z,101964.75
2022-08-31T00:47:15.630Z,101974.28
2022-08-31T00:52:22.719Z,101975.81
2022-08-31T00:57:34.463Z,101971.38
2022-08-31T01:02:40.241Z,101974.78
2022-08-31T01:07:47.676Z,101976.34
2022-08-31T01:12:55.112Z,101972.69
2022-08-31T01:18:03.424Z,101977.88
2022-08-31T01:23:12.145Z,101972.41
2022-08-31T01:28:17.064Z,101969.63
2022-08-31T01:33:20.800Z,101960.59
2022-08-31T01:38:26.145Z,101963.03
2022-08-31T01:43:33.860Z,101956.63
2022-08-31T01:48:41.568Z,101965.25
2022-08-31T01:53:49.179Z,101972.06
2022-08-31T01:58:53.303Z,101967.44
2022-08-31T02:03:59.415Z,101968.25
2022-08-31T02:09:07.105Z,101968.03
2022-08-31T02:14:12.878Z,101971.44
2022-08-31T02:19:16.775Z,101973.94
2022-08-31T02:24:21.878Z,101967.72
2022-08-31T02:29:25.641Z,101967.56
2022-08-31T02:34:29.564Z,101976.16
2022-08-31T02:39:35.033Z,101982.25
2022-08-31T02:44:38.917Z,101982.81
2022-08-31T02:49:42.766Z,101983.50
2022-08-31T02:54:48.524Z,101976.37
2022-08-31T02:59:52.321Z,101977.12
2022-08-31T03:04:56.131Z,101975.34
2022-08-31T03:10:02.955Z,101977.75
2022-08-31T03:15:08.868Z,101977.53
2022-08-31T03:20:13.659Z,101981.75
2022-08-31T03:25:18.910Z,101978.97
2022-08-31T03:30:23.804Z,101984.22
2022-08-31T03:35:31.004Z,101977.97
2022-08-31T03:40:36.288Z,101980.97
2022-08-31T03:45:41.156Z,101986.88
2022-08-31T03:50:45.277Z,101984.34
2022-08-31T03:55:51.055Z,101983.38
2022-08-31T04:00:55.254Z,101986.53
2022-08-31T04:05:59.523Z,101987.28
2022-08-31T04:11:16.057Z,101971.44
2022-08-31T04:16:24.528Z,101985.19
2022-08-31T04:21:33.167Z,101985.91
2022-08-31T04:26:40.482Z,101983.09
2022-08-31T04:31:44.885Z,101988.03
2022-08-31T04:36:48.994Z,101985.13
2022-08-31T04:41:55.483Z,101985.84
2022-08-31T04:47:00.327Z,101989.28
2022-08-31T04:52:04.774Z,101995.03
2022-08-31T04:57:10.724Z,101994.25
2022-08-31T05:02:14.618Z,101999.25
2022-08-31T05:07:18.835Z,102006.19
2022-08-31T05:12:24.169Z,102007.94
2022-08-31T05:17:29.161Z,102006.00
2022-08-31T05:22:33.649Z,102016.37
2022-08-31T05:27:39.802Z,102017.09
2022-08-31T05:32:44.240Z,102015.94
2022-08-31T05:37:51.508Z,102023.13
2022-08-31T05:42:59.478Z,102031.91
2022-08-31T05:48:03.651Z,102023.91
2022-08-31T05:53:08.322Z,102028.03
2022-08-31T05:58:13.460Z,102029.00
2022-08-31T06:03:17.737Z,102037.91
2022-08-31T06:08:27.063Z,102038.91
2022-08-31T06:13:33.902Z,102043.44
2022-08-31T06:18:41.110Z,102040.06
2022-08-31T06:23:45.473Z,102042.78
2022-08-31T06:28:53.971Z,102039.34
2022-08-31T06:33:59.297Z,102043.16
2022-08-31T06:39:05.911Z,102038.38
2022-08-31T06:44:13.818Z,102044.88
2022-08-31T06:49:27.126Z,102040.09
2022-08-31T06:54:31.067Z,102049.97
2022-08-31T06:59:43.306Z,102057.19
2022-08-31T07:04:48.647Z,102056.94
2022-08-31T07:09:52.690Z,102058.97
2022-08-31T07:14:58.044Z,102059.22
2022-08-31T07:20:01.888Z,102064.19
2022-08-31T07:25:07.971Z,102070.56
2022-08-31T07:30:14.658Z,102070.13
2022-08-31T07:35:19.263Z,102066.38
2022-08-31T07:40:41.735Z,102067.69
2022-08-31T07:45:47.494Z,102070.87
2022-08-31T07:50:54.272Z,102072.03
2022-08-31T07:56:01.646Z,102073.16
2022-08-31T08:01:07.977Z,102070.97
2022-08-31T08:06:15.421Z,102076.56
2022-08-31T08:11:22.906Z,102083.22
2022-08-31T08:16:29.918Z,102086.41
2022-08-31T08:21:34.043Z,102092.25
2022-08-31T08:26:38.617Z,102088.97
2022-08-31T08:31:53.094Z,102085.94
2022-08-31T08:36:57.444Z,102091.59
2022-08-31T08:42:01.370Z,102092.28
2022-08-31T08:47:08.847Z,102098.09
2022-08-31T08:52:27.085Z,102093.66
2022-08-31T08:57:33.142Z,102094.13
2022-08-31T09:02:43.774Z,102089.59
2022-08-31T09:08:10.368Z,102091.16
2022-08-31T09:13:23.317Z,102090.69
2022-08-31T09:18:44.827Z,102082.66
2022-08-31T09:23:55.145Z,102080.75
2022-08-31T09:28:58.915Z,102075.88
2022-08-31T09:34:05.380Z,102088.00
2022-08-31T09:39:17.191Z,102083.53
2022-08-31T09:44:31.494Z,102080.41
2022-08-31T09:49:39.693Z,102080.59
2022-08-31T09:55:13.191Z,102079.19
2022-08-31T10:00:26.028Z,102078.03
2022-08-31T10:05:40.437Z,102073.97
2022-08-31T10:10:47.117Z,102067.75
2022-08-31T10:15:54.545Z,102070.13
2022-08-31T10:21:07.773Z,102068.78
2022-08-31T10:26:19.022Z,102064.91
2022-08-31T10:31:30.062Z,102053.84
2022-08-31T10:36:40.959Z,102059.31
2022-08-31T10:41:49.443Z,102056.75
2022-08-31T10:46:58.956Z,102043.41
2022-08-31T10:52:12.679Z,102036.81
2022-08-31T10:57:31.423Z,102044.09
2022-08-31T11:02:53.108Z,102043.53
2022-08-31T11:08:06.612Z,102047.97
2022-08-31T11:13:27.827Z,102037.41
2022-08-31T11:19:09.245Z,102035.12
2022-08-31T11:24:30.088Z,102047.31
2022-08-31T11:29:43.288Z,102044.72
2022-08-31T11:34:51.506Z,102044.94
2022-08-31T11:39:56.716Z,102036.25
2022-08-31T11:45:03.251Z,102027.38
2022-08-31T11:50:56.058Z,102023.75
2022-08-31T11:56:05.136Z,102027.50
2022-08-31T12:01:35.891Z,102021.88
2022-08-31T12:07:11.099Z,102020.03
2022-08-31T12:12:33.529Z,102002.09
2022-08-31T12:17:51.871Z,101992.37
2022-08-31T12:23:38.817Z,101995.38
2022-08-31T12:29:02.546Z,101982.44
2022-08-31T12:34:08.985Z,101977.69
2022-08-31T12:39:20.386Z,101967.78
2022-08-31T12:44:28.938Z,101977.69
2022-08-31T12:50:07.825Z,101964.91
2022-08-31T12:55:28.197Z,101963.16
2022-08-31T13:00:35.670Z,101957.28
2022-08-31T13:05:39.890Z,101955.09
2022-08-31T13:10:43.622Z,101952.06
2022-08-31T13:15:49.546Z,101950.31
2022-08-31T13:20:56.593Z,101956.63
2022-08-31T13:26:01.479Z,101941.94
2022-08-31T13:31:10.200Z,101945.91
2022-08-31T13:36:30.336Z,101939.56
2022-08-31T13:41:38.447Z,101937.22
2022-08-31T13:46:59.392Z,101939.97
2022-08-31T13:52:05.283Z,101934.44
2022-08-31T13:57:28.327Z,101931.63
2022-08-31T14:02:40.349Z,101915.31
2022-08-31T14:07:58.356Z,101917.13
2022-08-31T14:13:04.650Z,101927.47
2022-08-31T14:18:24.310Z,101923.06
2022-08-31T14:23:34.808Z,101920.12
2022-08-31T14:28:41.951Z,101928.56
2022-08-31T14:33:48.166Z,101916.41
2022-08-31T14:38:54.331Z,101909.41
2022-08-31T14:44:09.397Z,101903.38
2022-08-31T14:49:14.660Z,101891.47
2022-08-31T14:54:18.409Z,101906.69
2022-08-31T14:59:22.224Z,101902.88
2022-08-31T15:04:28.904Z,101898.56
2022-08-31T15:09:32.852Z,101903.59
2022-08-31T15:14:37.085Z,101898.25
2022-08-31T15:19:44.801Z,101894.56
2022-08-31T15:24:49.620Z,101893.56
2022-08-31T15:29:59.109Z,101883.06
2022-08-31T15:35:04.656Z,101883.88
2022-08-31T15:40:11.135Z,101891.37
2022-08-31T15:45:15.024Z,101890.53
2022-08-31T15:50:25.024Z,101883.25
2022-08-31T15:55:29.031Z,101872.03
2022-08-31T16:00:33.947Z,101875.94
2022-08-31T16:05:39.865Z,101878.38
2022-08-31T16:10:45.235Z,101884.09
2022-08-31T16:15:52.012Z,101877.31
2022-08-31T16:20:57.197Z,101878.69
2022-08-31T16:26:00.976Z,101878.66
2022-08-31T16:31:06.440Z,101879.06
2022-08-31T16:36:17.786Z,101862.38
2022-08-31T16:41:23.932Z,101868.13
2022-08-31T16:46:40.611Z,101872.12
2022-08-31T16:51:48.635Z,101867.25
2022-08-31T16:56:52.532Z,101870.28
2022-08-31T17:01:56.694Z,101869.72
2022-08-31T17:07:01.826Z,101874.53
2022-08-31T17:12:11.753Z,101874.63
2022-08-31T17:17:17.133Z,101866.03
2022-08-31T17:22:31.852Z,101866.28
2022-08-31T17:27:36.880Z,101868.16
2022-08-31T17:32:44.727Z,101866.50
2022-08-31T17:37:50.877Z,101868.34
2022-08-31T17:42:59.632Z,101874.59
2022-08-31T17:48:04.057Z,101876.47
2022-08-31T17:53:09.161Z,101873.87
2022-08-31T17:58:13.395Z,101882.72
2022-08-31T18:03:17.270Z,101882.78
2022-08-31T18:08:26.374Z,101893.38
2022-08-31T18:13:30.159Z,101902.22
2022-08-31T18:18:34.079Z,101909.25
2022-08-31T18:23:39.882Z,101910.12
2022-08-31T18:28:43.993Z,101912.75
2022-08-31T18:33:51.538Z,101925.03
2022-08-31T18:38:59.471Z,101931.19
2022-08-31T18:44:21.062Z,101921.41
2022-08-31T18:49:25.276Z,101926.59
2022-08-31T18:54:31.888Z,101933.62
2022-08-31T18:59:35.767Z,101946.75
2022-08-31T19:04:40.437Z,101949.38
2022-08-31T19:09:45.919Z,101946.59
2022-08-31T19:14:51.177Z,101956.22
2022-08-31T19:19:55.220Z,101959.53
2022-08-31T19:25:00.325Z,101963.91
2022-08-31T19:30:06.019Z,101962.94
2022-08-31T19:35:10.315Z,101973.44
2022-08-31T19:40:17.892Z,101983.06
2022-08-31T19:45:23.305Z,101979.44
2022-08-31T19:50:27.802Z,101978.31
2022-08-31T19:55:33.028Z,101977.50
2022-08-31T20:00:38.796Z,101975.72
2022-08-31T20:05:43.379Z,101976.66
2022-08-31T20:10:48.802Z,101985.31
2022-08-31T20:15:52.798Z,101980.81
2022-08-31T20:20:59.226Z,101977.31
2022-08-31T20:26:05.242Z,101978.13
2022-08-31T20:31:11.222Z,101973.69
2022-08-31T20:36:18.985Z,101981.47
2022-08-31T20:41:24.798Z,101972.56
2022-08-31T20:46:46.370Z,101974.16
2022-08-31T20:51:50.575Z,101981.78
2022-08-31T20:56:55.871Z,101974.81
2022-08-31T21:02:05.616Z,101976.37
2022-08-31T21:07:13.158Z,101975.47
2022-08-31T21:12:21.062Z,101978.78
2022-08-31T21:17:25.375Z,101974.28
2022-08-31T21:22:29.086Z,101979.31
2022-08-31T21:27:34.555Z,101976.66
2022-08-31T21:32:40.628Z,101976.50
2022-08-31T21:37:44.306Z,101986.09
2022-08-31T21:42:49.659Z,101984.09
2022-08-31T21:47:53.356Z,101985.66
2022-08-31T21:53:00.305Z,101983.69
2022-08-31T21:58:05.656Z,101987.03
2022-08-31T22:03:09.809Z,101993.66
2022-08-31T22:08:13.639Z,101991.78
2022-08-31T22:13:19.876Z,101989.69
2022-08-31T22:18:59.742Z,101995.53
2022-08-31T22:23:47.931Z,101998.00
2022-08-31T22:28:53.384Z,102009.06
2022-08-31T22:33:57.248Z,102002.56
2022-08-31T22:39:03.243Z,102003.09
2022-08-31T22:44:09.987Z,102001.94
2022-08-31T22:49:15.023Z,102002.53
2022-08-31T22:54:21.032Z,101997.88
2022-08-31T22:59:27.686Z,101993.19
2022-08-31T23:04:34.228Z,101994.69
2022-08-31T23:09:38.179Z,101994.38
2022-08-31T23:14:43.219Z,101977.44
2022-08-31T23:19:47.034Z,101983.38
2022-08-31T23:24:51.731Z,101986.63
2022-08-31T23:29:58.197Z,101975.87
2022-08-31T23:35:03.020Z,101975.50
2022-08-31T23:40:08.579Z,101974.41
2022-08-31T23:45:13.832Z,101971.50
2022-08-31T23:50:17.733Z,101958.94
2022-08-31T23:55:28.300Z,101959.75
